createdAt,value
2023-02-11T00:00:17.681Z,95.18
2023-02-11T00:01:17.655Z,95.07
2023-02-11T00:02:17.723Z,95.18
2023-02-11T00:03:17.667Z,95.12
2023-02-11T00:04:17.670Z,95.12
2023-02-11T00:05:17.636Z,95.01
2023-02-11T00:06:17.635Z,94.85
2023-02-11T00:07:17.587Z,95.44
2023-02-11T00:08:17.592Z,95.65
2023-02-11T00:09:17.610Z,95.86
2023-02-11T00:10:17.607Z,95.86
2023-02-11T00:11:17.550Z,95.65
2023-02-11T00:12:17.558Z,95.54
2023-02-11T00:13:17.535Z,95.33
2023-02-11T00:14:17.542Z,95.23
2023-02-11T00:15:17.542Z,95.37
2023-02-11T00:16:17.645Z,95.37
2023-02-11T00:17:17.513Z,95.59
2023-02-11T00:18:17.515Z,95.65
2023-02-11T00:19:17.532Z,95.86
2023-02-11T00:20:17.478Z,95.76
2023-02-11T00:21:17.524Z,95.44
2023-02-11T00:22:17.521Z,95.48
2023-02-11T00:23:17.458Z,95.48
2023-02-11T00:24:17.425Z,95.48
2023-02-11T00:25:17.475Z,95.37
2023-02-11T00:26:17.410Z,95.90
2023-02-11T00:27:17.419Z,96.12
2023-02-11T00:28:17.448Z,96.22
2023-02-11T00:29:17.381Z,96.44
2023-02-11T00:30:17.361Z,96.22
2023-02-11T00:31:17.501Z,95.80
2023-02-11T00:32:17.347Z,95.90
2023-02-11T00:33:17.390Z,96.05
2023-02-11T00:34:17.366Z,96.16
2023-02-11T00:35:17.376Z,95.84
2023-02-11T00:36:17.397Z,95.95
2023-02-11T00:37:17.301Z,96.26
2023-02-11T00:38:17.287Z,96.26
2023-02-11T00:39:17.355Z,96.37
2023-02-11T00:40:17.286Z,96.26
2023-02-11T00:41:17.336Z,96.05
2023-02-11T00:42:17.280Z,95.95
2023-02-11T00:43:17.240Z,96.05
2023-02-11T00:44:17.287Z,96.22
2023-02-11T00:45:17.248Z,96.33
2023-02-11T00:46:17.469Z,96.22
2023-02-11T00:47:17.201Z,96.12
2023-02-11T00:48:17.221Z,95.90
2023-02-11T00:49:17.230Z,96.22
2023-02-11T00:50:17.640Z,96.12
2023-02-11T00:51:17.181Z,95.80
2023-02-11T00:52:17.144Z,95.48
2023-02-11T00:53:17.156Z,95.59
2023-02-11T00:54:17.188Z,95.59
2023-02-11T00:55:17.131Z,95.69
2023-02-11T00:56:17.128Z,95.69
2023-02-11T00:57:17.149Z,95.59
2023-02-11T00:58:17.110Z,95.37
2023-02-11T00:59:17.139Z,95.27
2023-02-11T01:00:17.076Z,95.17
2023-02-11T01:01:17.103Z,95.06
2023-02-11T01:02:17.077Z,95.06
2023-02-11T01:03:17.040Z,94.95
2023-02-11T01:04:17.086Z,94.78
2023-02-11T01:05:17.173Z,94.78
2023-02-11T01:06:17.015Z,94.89
2023-02-11T01:07:17.037Z,94.78
2023-02-11T01:08:17.009Z,94.89
2023-02-11T01:09:16.988Z,94.89
2023-02-11T01:10:16.987Z,94.78
2023-02-11T01:11:17.034Z,94.72
2023-02-11T01:12:16.999Z,94.72
2023-02-11T01:13:16.976Z,94.72
2023-02-11T01:14:16.988Z,94.55
2023-02-11T01:15:16.947Z,94.55
2023-02-11T01:16:17.016Z,94.65
2023-02-11T01:17:16.917Z,94.65
2023-02-11T01:18:16.936Z,94.65
2023-02-11T01:19:16.915Z,94.76
2023-02-11T01:20:16.905Z,94.87
2023-02-11T01:21:16.869Z,95.08
2023-02-11T01:22:16.906Z,95.08
2023-02-11T01:23:16.967Z,95.08
2023-02-11T01:24:16.915Z,94.98
2023-02-11T01:25:16.835Z,94.91
2023-02-11T01:26:16.872Z,94.81
2023-02-11T01:27:16.893Z,95.02
2023-02-11T01:28:16.886Z,95.23
2023-02-11T01:29:16.839Z,95.02
2023-02-11T01:30:16.793Z,94.91
2023-02-11T01:31:16.947Z,94.64
2023-02-11T01:32:16.914Z,94.85
2023-02-11T01:33:16.783Z,95.17
2023-02-11T01:34:16.765Z,95.48
2023-02-11T01:35:16.751Z,95.54
2023-02-11T01:36:16.738Z,95.65
2023-02-11T01:37:16.746Z,95.65
2023-02-11T01:38:16.715Z,95.54
2023-02-11T01:39:16.762Z,95.65
2023-02-11T01:40:16.696Z,95.65
2023-02-11T01:41:16.696Z,95.54
2023-02-11T01:42:16.728Z,95.44
2023-02-11T01:43:16.696Z,95.44
2023-02-11T01:44:16.728Z,95.54
2023-02-11T01:45:16.754Z,95.44
2023-02-11T01:46:16.712Z,95.48
2023-02-11T01:47:21.633Z,95.48
2023-02-11T01:48:16.619Z,95.59
2023-02-11T01:49:16.851Z,95.59
2023-02-11T01:50:16.639Z,95.59
2023-02-11T01:51:16.616Z,95.59
2023-02-11T01:52:16.612Z,95.80
2023-02-11T01:53:16.583Z,95.80
2023-02-11T01:54:16.574Z,95.80
2023-02-11T01:55:16.585Z,95.91
2023-02-11T01:56:16.555Z,96.23
2023-02-11T01:57:16.582Z,96.33
2023-02-11T01:58:16.549Z,96.61
2023-02-11T01:59:16.521Z,96.61
2023-02-11T02:00:16.612Z,96.50
2023-02-11T02:01:16.556Z,96.29
2023-02-11T02:02:16.518Z,96.08
2023-02-11T02:03:16.576Z,96.01
2023-02-11T02:04:16.491Z,95.91
2023-02-11T02:05:16.501Z,96.12
2023-02-11T02:06:16.441Z,96.23
2023-02-11T02:07:16.423Z,96.23
2023-02-11T02:08:16.436Z,96.12
2023-02-11T02:09:16.477Z,96.16
2023-02-11T02:10:16.476Z,96.27
2023-02-11T02:11:16.434Z,96.65
2023-02-11T02:12:16.402Z,96.86
2023-02-11T02:13:16.391Z,96.76
2023-02-11T02:14:16.422Z,96.55
2023-02-11T02:15:16.350Z,96.44
2023-02-11T02:16:16.475Z,96.65
2023-02-11T02:17:16.356Z,96.86
2023-02-11T02:18:16.344Z,96.65
2023-02-11T02:19:16.321Z,96.59
2023-02-11T02:20:16.334Z,96.69
2023-02-11T02:21:16.336Z,96.80
2023-02-11T02:22:16.323Z,97.08
2023-02-11T02:23:16.291Z,96.86
2023-02-11T02:24:16.274Z,97.08
2023-02-11T02:25:16.357Z,97.08
2023-02-11T02:26:16.295Z,97.02
2023-02-11T02:27:16.282Z,97.08
2023-02-11T02:28:16.528Z,97.18
2023-02-11T02:29:16.288Z,96.97
2023-02-11T02:30:16.282Z,96.97
2023-02-11T02:31:16.223Z,96.80
2023-02-11T02:32:16.338Z,96.91
2023-02-11T02:33:23.008Z,97.29
2023-02-11T02:34:17.197Z,97.18
2023-02-11T02:35:16.175Z,97.08
2023-02-11T02:36:16.163Z,97.08
2023-02-11T02:37:16.170Z,97.08
2023-02-11T02:38:16.223Z,96.97
2023-02-11T02:39:16.123Z,96.91
2023-02-11T02:40:16.124Z,96.80
2023-02-11T02:41:16.154Z,96.80
2023-02-11T02:42:16.131Z,96.69
2023-02-11T02:43:16.079Z,96.73
2023-02-11T02:44:16.136Z,97.12
2023-02-11T02:45:16.081Z,97.22
2023-02-11T02:46:16.171Z,97.44
2023-02-11T02:47:16.053Z,97.44
2023-02-11T02:48:16.123Z,97.44
2023-02-11T02:49:16.035Z,97.22
2023-02-11T02:50:16.132Z,97.06
2023-02-11T02:51:16.082Z,97.22
2023-02-11T02:52:16.021Z,97.44
2023-02-11T02:53:15.982Z,97.44
2023-02-11T02:54:15.986Z,97.54
2023-02-11T02:55:16.122Z,97.65
2023-02-11T02:56:16.125Z,97.65
2023-02-11T02:57:15.958Z,97.65
2023-02-11T02:58:16.036Z,97.65
2023-02-11T02:59:15.966Z,97.44
2023-02-11T03:00:15.926Z,97.65
2023-02-11T03:01:16.041Z,97.44
2023-02-11T03:02:15.988Z,97.38
2023-02-11T03:03:15.906Z,97.48
2023-02-11T03:04:15.958Z,97.86
2023-02-11T03:05:15.893Z,97.75
2023-02-11T03:06:15.896Z,97.86
2023-02-11T03:07:15.847Z,97.75
2023-02-11T03:08:15.848Z,97.54
2023-02-11T03:09:15.916Z,97.44
2023-02-11T03:10:15.864Z,97.33
2023-02-11T03:11:15.826Z,97.02
2023-02-11T03:12:15.834Z,96.91
2023-02-11T03:13:15.858Z,96.80
2023-02-11T03:14:16.618Z,96.63
2023-02-11T03:15:15.829Z,96.53
2023-02-11T03:16:15.833Z,96.42
2023-02-11T03:17:15.832Z,96.63
2023-02-11T03:18:15.754Z,96.73
2023-02-11T03:19:15.747Z,96.80
2023-02-11T03:20:15.721Z,96.59
2023-02-11T03:21:15.763Z,96.48
2023-02-11T03:22:15.715Z,96.37
2023-02-11T03:23:15.740Z,96.27
2023-02-11T03:24:15.719Z,96.37
2023-02-11T03:25:15.697Z,96.27
2023-02-11T03:26:15.717Z,96.12
2023-02-11T03:27:15.695Z,96.01
2023-02-11T03:28:15.736Z,95.91
2023-02-11T03:29:15.642Z,95.91
2023-02-11T03:30:15.644Z,95.91
2023-02-11T03:31:15.887Z,95.80
2023-02-11T03:32:15.808Z,95.91
2023-02-11T03:33:15.623Z,95.97
2023-02-11T03:34:15.694Z,95.87
2023-02-11T03:35:15.582Z,95.54
2023-02-11T03:36:15.639Z,95.34
2023-02-11T03:37:15.583Z,95.23
2023-02-11T03:38:15.613Z,95.23
2023-02-11T03:39:15.553Z,95.02
2023-02-11T03:40:15.540Z,94.91
2023-02-11T03:41:15.547Z,94.81
2023-02-11T03:42:15.533Z,94.81
2023-02-11T03:43:15.541Z,94.70
2023-02-11T03:44:15.543Z,94.49
2023-02-11T03:45:15.521Z,94.38
2023-02-11T03:46:15.499Z,94.32
2023-02-11T03:47:15.498Z,94.32
2023-02-11T03:48:15.592Z,94.21
2023-02-11T03:49:15.487Z,94.10
2023-02-11T03:50:15.443Z,94.10
2023-02-11T03:51:15.459Z,94.42
2023-02-11T03:52:15.469Z,94.53
2023-02-11T03:53:15.474Z,94.95
2023-02-11T03:54:15.419Z,94.95
2023-02-11T03:55:15.406Z,95.06
2023-02-11T03:56:15.389Z,95.02
2023-02-11T03:57:15.385Z,95.02
2023-02-11T03:58:15.369Z,94.76
2023-02-11T03:59:15.404Z,94.55
2023-02-11T04:00:15.479Z,94.23
2023-02-11T04:01:15.380Z,94.02
2023-02-11T04:02:15.334Z,93.96
2023-02-11T04:03:15.463Z,93.74
2023-02-11T04:04:15.327Z,93.53
2023-02-11T04:05:15.350Z,93.53
2023-02-11T04:06:15.347Z,93.47
2023-02-11T04:07:15.282Z,93.47
2023-02-11T04:08:15.341Z,93.47
2023-02-11T04:09:15.355Z,93.57
2023-02-11T04:10:15.249Z,93.57
2023-02-11T04:11:15.433Z,93.47
2023-02-11T04:12:15.250Z,93.36
2023-02-11T04:13:15.261Z,93.26
2023-02-11T04:14:15.291Z,93.19
2023-02-11T04:15:15.249Z,93.19
2023-02-11T04:16:15.226Z,93.19
2023-02-11T04:17:15.173Z,93.08
2023-02-11T04:18:15.251Z,93.08
2023-02-11T04:19:15.152Z,92.98
2023-02-11T04:20:15.195Z,92.87
2023-02-11T04:21:15.164Z,93.08
2023-02-11T04:22:22.648Z,93.40
2023-02-11T04:23:15.152Z,93.62
2023-02-11T04:24:15.228Z,93.51
2023-02-11T04:25:15.139Z,93.40
2023-02-11T04:26:15.085Z,93.51
2023-02-11T04:27:15.155Z,93.57
2023-02-11T04:28:15.170Z,93.57
2023-02-11T04:29:17.616Z,93.68
2023-02-11T04:30:15.062Z,93.57
2023-02-11T04:31:15.273Z,93.68
2023-02-11T04:32:15.032Z,93.57
2023-02-11T04:33:15.028Z,93.51
2023-02-11T04:34:15.073Z,93.51
2023-02-11T04:35:15.111Z,93.62
2023-02-11T04:36:15.003Z,93.72
2023-02-11T04:37:15.024Z,93.62
2023-02-11T04:38:15.078Z,94.21
2023-02-11T04:39:14.969Z,94.53
2023-02-11T04:40:14.954Z,94.38
2023-02-11T04:41:14.958Z,94.38
2023-02-11T04:42:15.030Z,94.06
2023-02-11T04:43:14.944Z,93.96
2023-02-11T04:44:14.929Z,93.96
2023-02-11T04:45:14.921Z,93.96
2023-02-11T04:46:14.929Z,93.85
2023-02-11T04:47:14.957Z,93.74
2023-02-11T04:48:14.898Z,93.74
2023-02-11T04:49:14.896Z,93.64
2023-02-11T04:50:14.869Z,93.74
2023-02-11T04:51:14.852Z,93.80
2023-02-11T04:52:14.944Z,93.74
2023-02-11T04:53:14.874Z,93.80
2023-02-11T04:54:14.852Z,93.70
2023-02-11T04:55:15.140Z,93.49
2023-02-11T04:56:14.855Z,93.49
2023-02-11T04:57:14.910Z,93.49
2023-02-11T04:58:14.827Z,93.49
2023-02-11T04:59:14.829Z,93.38
2023-02-11T05:00:14.783Z,93.28
2023-02-11T05:01:14.816Z,93.28
2023-02-11T05:02:14.742Z,93.07
2023-02-11T05:03:14.753Z,93.07
2023-02-11T05:04:14.882Z,92.96
2023-02-11T05:05:14.748Z,92.96
2023-02-11T05:06:14.696Z,93.07
2023-02-11T05:07:14.707Z,92.96
2023-02-11T05:08:14.718Z,93.07
2023-02-11T05:09:14.714Z,93.17
2023-02-11T05:10:14.682Z,93.17
2023-02-11T05:11:14.661Z,93.07
2023-02-11T05:12:14.714Z,92.96
2023-02-11T05:13:14.661Z,92.85
2023-02-11T05:14:14.629Z,92.75
2023-02-11T05:15:14.646Z,92.64
2023-02-11T05:16:14.663Z,92.54
2023-02-11T05:17:14.638Z,92.68
2023-02-11T05:18:14.600Z,92.47
2023-02-11T05:19:14.586Z,92.58
2023-02-11T05:20:14.572Z,92.68
2023-02-11T05:21:14.556Z,92.79
2023-02-11T05:22:14.680Z,92.68
2023-02-11T05:23:14.569Z,92.68
2023-02-11T05:24:14.661Z,92.79
2023-02-11T05:25:14.518Z,92.90
2023-02-11T05:26:14.517Z,92.90
2023-02-11T05:27:14.503Z,93.00
2023-02-11T05:28:14.589Z,93.00
2023-02-11T05:29:14.511Z,93.11
2023-02-11T05:30:14.482Z,93.21
2023-02-11T05:31:14.727Z,93.32
2023-02-11T05:32:14.480Z,93.43
2023-02-11T05:33:14.461Z,93.43
2023-02-11T05:34:14.557Z,93.53
2023-02-11T05:35:14.422Z,93.53
2023-02-11T05:36:14.428Z,93.53
2023-02-11T05:37:14.476Z,93.64
2023-02-11T05:38:14.445Z,93.70
2023-02-11T05:39:14.382Z,93.70
2023-02-11T05:40:14.422Z,93.70
2023-02-11T05:41:14.362Z,93.80
2023-02-11T05:42:14.352Z,93.87
2023-02-11T05:43:14.362Z,93.98
2023-02-11T05:44:14.385Z,93.98
2023-02-11T05:45:15.160Z,93.83
2023-02-11T05:46:14.370Z,93.51
2023-02-11T05:47:14.319Z,93.15
2023-02-11T05:48:14.318Z,92.83
2023-02-11T05:49:14.338Z,92.52
2023-02-11T05:50:14.278Z,92.30
2023-02-11T05:51:14.308Z,91.99
2023-02-11T05:52:14.254Z,91.78
2023-02-11T05:53:14.243Z,91.52
2023-02-11T05:54:14.229Z,90.89
2023-02-11T05:55:14.338Z,90.36
2023-02-11T05:56:14.209Z,90.04
2023-02-11T05:57:14.203Z,89.72
2023-02-11T05:58:14.190Z,89.51
2023-02-11T05:59:14.217Z,89.40
2023-02-11T06:00:14.176Z,89.30
2023-02-11T06:01:14.217Z,89.09
2023-02-11T06:02:14.231Z,88.88
2023-02-11T06:03:14.237Z,88.77
2023-02-11T06:04:14.134Z,88.56
2023-02-11T06:05:14.181Z,88.52
2023-02-11T06:06:14.156Z,88.42
2023-02-11T06:07:14.196Z,88.42
2023-02-11T06:08:14.090Z,88.31
2023-02-11T06:09:14.112Z,88.31
2023-02-11T06:10:14.075Z,88.20
2023-02-11T06:11:14.071Z,88.10
2023-02-11T06:12:14.069Z,88.20
2023-02-11T06:13:14.135Z,88.17
2023-02-11T06:14:14.036Z,88.06
2023-02-11T06:15:14.026Z,88.06
2023-02-11T06:16:14.119Z,87.95
2023-02-11T06:17:15.721Z,87.85
2023-02-11T06:18:14.014Z,87.81
2023-02-11T06:19:13.983Z,87.81
2023-02-11T06:20:13.997Z,87.81
2023-02-11T06:21:13.981Z,87.92
2023-02-11T06:22:13.967Z,87.92
2023-02-11T06:23:14.003Z,87.92
2023-02-11T06:24:13.934Z,88.02
2023-02-11T06:25:14.623Z,88.09
2023-02-11T06:26:13.965Z,88.19
2023-02-11T06:27:13.965Z,88.29
2023-02-11T06:28:14.085Z,88.40
2023-02-11T06:29:13.923Z,88.51
2023-02-11T06:30:13.899Z,88.51
2023-02-11T06:31:14.034Z,88.51
2023-02-11T06:32:35.709Z,88.40
2023-02-11T06:33:14.899Z,88.29
2023-02-11T06:34:13.839Z,88.29
2023-02-11T06:35:13.817Z,88.09
2023-02-11T06:36:13.812Z,87.87
2023-02-11T06:37:13.802Z,87.66
2023-02-11T06:38:13.830Z,87.73
2023-02-11T06:39:13.782Z,87.62
2023-02-11T06:40:13.809Z,87.73
2023-02-11T06:41:13.805Z,87.84
2023-02-11T06:42:13.758Z,87.84
2023-02-11T06:43:13.799Z,88.04
2023-02-11T06:44:13.729Z,88.04
2023-02-11T06:45:13.747Z,88.15
2023-02-11T06:46:13.774Z,88.36
2023-02-11T06:47:13.703Z,88.46
2023-02-11T06:48:13.703Z,88.57
2023-02-11T06:49:13.734Z,88.57
2023-02-11T06:50:13.685Z,88.46
2023-02-11T06:51:13.690Z,88.46
2023-02-11T06:52:13.671Z,88.36
2023-02-11T06:53:13.650Z,88.36
2023-02-11T06:54:13.678Z,88.36
2023-02-11T06:55:13.660Z,88.36
2023-02-11T06:56:13.624Z,88.36
2023-02-11T06:57:13.614Z,88.36
2023-02-11T06:58:13.627Z,88.26
2023-02-11T06:59:13.604Z,88.36
2023-02-11T07:00:13.580Z,88.26
2023-02-11T07:01:13.570Z,88.15
2023-02-11T07:02:13.633Z,88.01
2023-02-11T07:03:13.739Z,87.90
2023-02-11T07:04:13.666Z,87.58
2023-02-11T07:05:13.549Z,85.89
2023-02-11T07:06:13.517Z,85.36
2023-02-11T07:07:13.507Z,84.00
2023-02-11T07:08:13.497Z,82.79
2023-02-11T07:09:13.512Z,82.37
2023-02-11T07:10:13.491Z,82.37
2023-02-11T07:11:13.493Z,82.37
2023-02-11T07:12:13.461Z,82.27
2023-02-11T07:13:13.452Z,81.95
2023-02-11T07:14:13.438Z,81.74
2023-02-11T07:15:13.464Z,81.74
2023-02-11T07:16:13.574Z,81.63
2023-02-11T07:17:13.407Z,81.74
2023-02-11T07:18:14.749Z,81.95
2023-02-11T07:19:13.380Z,82.27
2023-02-11T07:20:13.377Z,82.59
2023-02-11T07:21:13.400Z,82.90
2023-02-11T07:22:13.365Z,83.22
2023-02-11T07:23:13.355Z,83.33
2023-02-11T07:24:13.356Z,83.33
2023-02-11T07:25:13.327Z,83.75
2023-02-11T07:26:13.362Z,84.27
2023-02-11T07:27:13.331Z,84.80
2023-02-11T07:28:13.344Z,85.22
2023-02-11T07:29:13.279Z,85.54
2023-02-11T07:30:13.271Z,85.75
2023-02-11T07:31:13.451Z,85.96
2023-02-11T07:32:13.412Z,85.96
2023-02-11T07:33:13.255Z,85.96
2023-02-11T07:34:13.238Z,85.85
2023-02-11T07:35:13.232Z,85.50
2023-02-11T07:36:13.224Z,85.18
2023-02-11T07:37:13.288Z,85.08
2023-02-11T07:38:13.192Z,85.08
2023-02-11T07:39:13.181Z,84.76
2023-02-11T07:40:13.209Z,84.72
2023-02-11T07:41:13.166Z,84.83
2023-02-11T07:42:13.152Z,84.41
2023-02-11T07:43:13.208Z,84.20
2023-02-11T07:44:13.137Z,83.95
2023-02-11T07:45:13.128Z,83.73
2023-02-11T07:46:13.126Z,83.42
2023-02-11T07:47:13.105Z,82.65
2023-02-11T07:48:13.144Z,81.49
2023-02-11T07:49:13.077Z,80.75
2023-02-11T07:50:13.083Z,80.54
2023-02-11T07:51:13.101Z,80.33
2023-02-11T07:52:13.059Z,80.08
2023-02-11T07:53:13.066Z,79.98
2023-02-11T07:54:13.095Z,79.98
2023-02-11T07:55:13.048Z,79.73
2023-02-11T07:56:13.073Z,79.52
2023-02-11T07:57:12.999Z,79.83
2023-02-11T07:58:12.995Z,79.73
2023-02-11T07:59:12.985Z,79.91
2023-02-11T08:00:12.965Z,79.49
2023-02-11T08:01:13.074Z,78.50
2023-02-11T08:02:13.043Z,77.76
2023-02-11T08:03:12.946Z,76.61
2023-02-11T08:04:12.953Z,76.61
2023-02-11T08:05:12.989Z,76.37
2023-02-11T08:06:12.907Z,75.74
2023-02-11T08:07:12.906Z,75.74
2023-02-11T08:08:12.901Z,75.49
2023-02-11T08:09:12.909Z,75.04
2023-02-11T08:10:12.873Z,74.62
2023-02-11T08:11:12.900Z,75.01
2023-02-11T08:12:12.867Z,74.79
2023-02-11T08:13:12.852Z,74.90
2023-02-11T08:14:12.890Z,75.11
2023-02-11T08:15:12.852Z,74.79
2023-02-11T08:16:12.876Z,75.32
2023-02-11T08:17:12.807Z,75.74
2023-02-11T08:18:12.797Z,75.74
2023-02-11T08:19:12.828Z,75.84
2023-02-11T08:20:12.774Z,75.74
2023-02-11T08:21:12.780Z,75.53
2023-02-11T08:22:12.777Z,75.92
2023-02-11T08:23:12.778Z,75.56
2023-02-11T08:24:12.764Z,75.11
2023-02-11T08:25:12.768Z,74.48
2023-02-11T08:26:12.739Z,73.65
2023-02-11T08:27:12.744Z,73.19
2023-02-11T08:28:12.778Z,71.97
2023-02-11T08:29:12.724Z,72.13
2023-02-11T08:30:12.678Z,69.84
2023-02-11T08:31:12.731Z,67.55
2023-02-11T08:32:12.648Z,65.80
2023-02-11T08:33:12.634Z,63.29
2023-02-11T08:34:12.612Z,64.65
2023-02-11T08:35:12.649Z,62.65
2023-02-11T08:36:12.629Z,60.24
2023-02-11T08:37:12.636Z,61.13
2023-02-11T08:38:12.624Z,62.07
2023-02-11T08:39:19.319Z,63.90
2023-02-11T08:40:13.587Z,65.78
2023-02-11T08:41:12.609Z,65.44
2023-02-11T08:42:12.548Z,65.41
2023-02-11T08:43:12.528Z,63.64
2023-02-11T08:44:12.516Z,64.09
2023-02-11T08:45:12.608Z,64.22
2023-02-11T08:46:12.574Z,65.81
2023-02-11T08:47:12.484Z,65.86
2023-02-11T08:48:12.498Z,65.52
2023-02-11T08:49:12.539Z,66.07
2023-02-11T08:50:12.488Z,66.07
2023-02-11T08:51:12.504Z,65.91
2023-02-11T08:52:12.431Z,64.21
2023-02-11T08:53:12.441Z,63.48
2023-02-11T08:54:12.438Z,64.59
2023-02-11T08:55:12.469Z,64.70
2023-02-11T08:56:13.595Z,64.07
2023-02-11T08:57:12.407Z,63.27
2023-02-11T08:58:12.377Z,63.68
2023-02-11T08:59:12.384Z,63.58
2023-02-11T09:00:12.353Z,64.62
2023-02-11T09:01:12.442Z,63.79
2023-02-11T09:02:12.363Z,63.13
2023-02-11T09:03:12.313Z,62.12
2023-02-11T09:04:12.325Z,62.75
2023-02-11T09:05:12.316Z,62.02
2023-02-11T09:06:12.324Z,62.46
2023-02-11T09:07:12.263Z,62.64
2023-02-11T09:08:12.266Z,62.33
2023-02-11T09:09:12.282Z,62.46
2023-02-11T09:10:12.300Z,63.51
2023-02-11T09:11:12.283Z,63.92
2023-02-11T09:12:12.220Z,63.82
2023-02-11T09:13:12.287Z,63.82
2023-02-11T09:14:12.211Z,63.85
2023-02-11T09:15:12.216Z,64.37
2023-02-11T09:16:12.281Z,64.58
2023-02-11T09:17:12.212Z,64.69
2023-02-11T09:18:12.161Z,64.65
2023-02-11T09:19:12.163Z,64.13
2023-02-11T09:20:12.138Z,64.55
2023-02-11T09:21:12.133Z,64.42
2023-02-11T09:22:12.193Z,64.31
2023-02-11T09:23:19.699Z,63.76
2023-02-11T09:24:12.108Z,63.34
2023-02-11T09:25:12.125Z,62.93
2023-02-11T09:26:12.076Z,61.78
2023-02-11T09:27:12.075Z,61.36
2023-02-11T09:28:12.202Z,61.33
2023-02-11T09:29:12.063Z,61.10
2023-02-11T09:30:12.063Z,59.56
2023-02-11T09:31:12.172Z,59.88
2023-02-11T09:32:12.261Z,58.63
2023-02-11T09:33:12.005Z,58.65
2023-02-11T09:34:12.046Z,59.39
2023-02-11T09:35:11.988Z,59.46
2023-02-11T09:36:12.002Z,60.16
2023-02-11T09:37:11.951Z,59.33
2023-02-11T09:38:11.946Z,58.89
2023-02-11T09:39:12.105Z,58.42
2023-02-11T09:40:11.963Z,57.77
2023-02-11T09:41:11.960Z,57.32
2023-02-11T09:42:11.906Z,56.70
2023-02-11T09:43:11.963Z,56.45
2023-02-11T09:44:11.928Z,55.17
2023-02-11T09:45:11.945Z,53.96
2023-02-11T09:46:12.088Z,54.13
2023-02-11T09:47:11.882Z,54.83
2023-02-11T09:48:11.852Z,53.49
2023-02-11T09:49:11.884Z,53.17
2023-02-11T09:50:11.840Z,53.49
2023-02-11T09:51:11.861Z,53.72
2023-02-11T09:52:11.817Z,54.55
2023-02-11T09:53:11.842Z,54.27
2023-02-11T09:54:11.795Z,56.08
2023-02-11T09:55:11.851Z,56.26
2023-02-11T09:56:11.765Z,56.57
2023-02-11T09:57:26.520Z,56.57
2023-02-11T09:58:12.761Z,55.12
2023-02-11T09:59:11.738Z,55.74
2023-02-11T10:00:11.773Z,56.26
2023-02-11T10:01:11.758Z,56.26
2023-02-11T10:02:11.722Z,56.05
2023-02-11T10:03:11.717Z,56.60
2023-02-11T10:04:11.730Z,56.60
2023-02-11T10:05:11.724Z,56.47
2023-02-11T10:06:11.655Z,56.05
2023-02-11T10:07:11.637Z,54.99
2023-02-11T10:08:11.679Z,54.89
2023-02-11T10:09:11.638Z,54.03
2023-02-11T10:10:11.607Z,54.13
2023-02-11T10:11:22.674Z,53.49
2023-02-11T10:12:12.598Z,51.91
2023-02-11T10:13:11.605Z,51.37
2023-02-11T10:14:11.568Z,51.53
2023-02-11T10:15:11.561Z,50.05
2023-02-11T10:16:11.627Z,48.56
2023-02-11T10:17:11.621Z,46.68
2023-02-11T10:18:11.526Z,45.94
2023-02-11T10:19:11.521Z,43.56
2023-02-11T10:20:11.571Z,43.87
2023-02-11T10:21:11.533Z,44.53
2023-02-11T10:22:11.511Z,47.92
2023-02-11T10:23:11.536Z,48.43
2023-02-11T10:24:11.475Z,48.07
2023-02-11T10:25:11.455Z,47.61
2023-02-11T10:26:11.449Z,47.59
2023-02-11T10:27:11.476Z,47.90
2023-02-11T10:28:11.493Z,47.88
2023-02-11T10:29:11.415Z,47.24
2023-02-11T10:30:11.399Z,46.51
2023-02-11T10:31:11.606Z,46.92
2023-02-11T10:32:11.479Z,45.50
2023-02-11T10:33:11.396Z,46.25
2023-02-11T10:34:11.385Z,46.77
2023-02-11T10:35:11.445Z,47.26
2023-02-11T10:36:11.364Z,45.89
2023-02-11T10:37:11.330Z,45.40
2023-02-11T10:38:11.392Z,46.00
2023-02-11T10:39:11.314Z,44.14
2023-02-11T10:40:11.293Z,44.35
2023-02-11T10:41:11.315Z,44.47
2023-02-11T10:42:11.265Z,45.61
2023-02-11T10:43:11.260Z,45.50
2023-02-11T10:44:11.256Z,44.76
2023-02-11T10:45:11.283Z,44.53
2023-02-11T10:46:11.243Z,44.10
2023-02-11T10:47:11.220Z,44.08
2023-02-11T10:48:11.207Z,43.65
2023-02-11T10:49:11.240Z,42.22
2023-02-11T10:50:11.214Z,42.85
2023-02-11T10:51:14.074Z,42.76
2023-02-11T10:52:11.231Z,42.86
2023-02-11T10:53:11.150Z,42.39
2023-02-11T10:54:13.594Z,44.04
2023-02-11T10:55:11.129Z,43.09
2023-02-11T10:56:11.125Z,42.88
2023-02-11T10:57:11.120Z,43.69
2023-02-11T10:58:11.119Z,43.19
2023-02-11T10:59:11.080Z,42.99
2023-02-11T11:00:11.071Z,42.66
2023-02-11T11:01:23.788Z,41.83
2023-02-11T11:02:12.233Z,41.83
2023-02-11T11:03:11.083Z,42.06
2023-02-11T11:04:11.038Z,42.47
2023-02-11T11:05:11.037Z,42.60
2023-02-11T11:06:11.012Z,42.80
2023-02-11T11:07:11.001Z,43.40
2023-02-11T11:08:11.058Z,42.55
2023-02-11T11:09:10.980Z,42.78
2023-02-11T11:10:10.984Z,42.97
2023-02-11T11:11:10.987Z,42.41
2023-02-11T11:12:10.979Z,42.91
2023-02-11T11:13:10.945Z,41.31
2023-02-11T11:14:10.982Z,40.14
2023-02-11T11:15:10.919Z,38.77
2023-02-11T11:16:10.966Z,38.12
2023-02-11T11:17:15.710Z,37.37
2023-02-11T11:18:20.861Z,36.43
2023-02-11T11:19:11.916Z,35.71
2023-02-11T11:20:10.855Z,36.77
2023-02-11T11:21:10.868Z,37.84
2023-02-11T11:22:10.866Z,38.58
2023-02-11T11:23:10.840Z,38.58
2023-02-11T11:24:10.894Z,39.11
2023-02-11T11:25:10.801Z,39.73
2023-02-11T11:26:10.829Z,39.94
2023-02-11T11:27:10.875Z,39.71
2023-02-11T11:28:10.830Z,39.20
2023-02-11T11:29:10.834Z,38.79
2023-02-11T11:30:10.824Z,38.49
2023-02-11T11:31:10.861Z,39.01
2023-02-11T11:32:10.971Z,38.21
2023-02-11T11:33:10.715Z,39.48
2023-02-11T11:34:10.706Z,40.62
2023-02-11T11:35:10.707Z,40.52
2023-02-11T11:36:10.684Z,41.17
2023-02-11T11:37:10.726Z,42.10
2023-02-11T11:38:10.693Z,41.57
2023-02-11T11:39:10.641Z,41.16
2023-02-11T11:40:10.668Z,40.97
2023-02-11T11:41:10.627Z,41.08
2023-02-11T11:42:10.615Z,41.05
2023-02-11T11:43:10.602Z,41.17
2023-02-11T11:44:10.590Z,42.02
2023-02-11T11:45:10.583Z,42.31
2023-02-11T11:46:10.647Z,42.21
2023-02-11T11:47:10.569Z,41.89
2023-02-11T11:48:10.558Z,41.89
2023-02-11T11:49:10.601Z,42.00
2023-02-11T11:50:10.530Z,41.98
2023-02-11T11:51:10.522Z,42.41
2023-02-11T11:52:10.756Z,42.45
2023-02-11T11:53:10.509Z,42.85
2023-02-11T11:54:10.480Z,43.13
2023-02-11T11:55:10.474Z,42.40
2023-02-11T11:56:10.490Z,40.83
2023-02-11T11:57:10.541Z,40.48
2023-02-11T11:58:10.474Z,40.26
2023-02-11T11:59:10.428Z,40.28
2023-02-11T12:00:10.422Z,40.48
2023-02-11T12:01:10.443Z,40.69
2023-02-11T12:02:10.488Z,40.05
2023-02-11T12:03:10.458Z,39.01
2023-02-11T12:04:10.382Z,38.58
2023-02-11T12:05:10.393Z,38.70
2023-02-11T12:06:10.371Z,39.20
2023-02-11T12:07:10.346Z,38.89
2023-02-11T12:08:10.364Z,38.89
2023-02-11T12:09:10.342Z,38.67
2023-02-11T12:10:10.408Z,38.67
2023-02-11T12:11:10.354Z,36.87
2023-02-11T12:12:10.329Z,36.19
2023-02-11T12:13:10.278Z,37.93
2023-02-11T12:14:10.341Z,40.09
2023-02-11T12:15:10.294Z,40.69
2023-02-11T12:16:10.337Z,40.79
2023-02-11T12:17:10.245Z,41.12
2023-02-11T12:18:10.275Z,41.00
2023-02-11T12:19:10.265Z,41.10
2023-02-11T12:20:10.214Z,41.39
2023-02-11T12:21:10.193Z,41.06
2023-02-11T12:22:10.220Z,39.73
2023-02-11T12:23:10.163Z,39.71
2023-02-11T12:24:10.194Z,39.09
2023-02-11T12:25:10.209Z,39.61
2023-02-11T12:26:10.137Z,39.09
2023-02-11T12:27:10.192Z,39.22
2023-02-11T12:28:10.192Z,39.62
2023-02-11T12:29:10.106Z,39.50
2023-02-11T12:30:10.095Z,38.97
2023-02-11T12:31:12.163Z,40.01
2023-02-11T12:32:10.201Z,39.28
2023-02-11T12:33:10.125Z,37.21
2023-02-11T12:34:10.054Z,37.38
2023-02-11T12:35:10.043Z,37.05
2023-02-11T12:36:10.052Z,37.67
2023-02-11T12:37:10.011Z,37.26
2023-02-11T12:38:10.048Z,37.37
2023-02-11T12:39:10.124Z,37.88
2023-02-11T12:40:10.010Z,37.13
2023-02-11T12:41:10.185Z,35.99
2023-02-11T12:42:09.967Z,35.46
2023-02-11T12:43:09.983Z,36.07
2023-02-11T12:44:10.044Z,35.27
2023-02-11T12:45:09.949Z,33.12
2023-02-11T12:46:10.040Z,34.39
2023-02-11T12:47:14.802Z,36.87
2023-02-11T12:48:09.899Z,37.16
2023-02-11T12:49:09.884Z,36.87
2023-02-11T12:50:09.882Z,37.69
2023-02-11T12:51:09.872Z,36.82
2023-02-11T12:52:09.864Z,35.27